sensor_id;sensor_type;location;lat;lon;timestamp;P1;durP1;ratioP1;P2;durP2;ratioP2
55603;SDS011;41468;48.838;9.330;2023-08-24T00:01:51;8.25;;;3.42;;
55603;SDS011;41468;48.838;9.330;2023-08-24T00:04:18;7.00;;;3.47;;
55603;SDS011;41468;48.838;9.330;2023-08-24T00:06:45;4.10;;;3.70;;
55603;SDS011;41468;48.838;9.330;2023-08-24T00:09:12;5.70;;;3.58;;
55603;SDS011;41468;48.838;9.330;2023-08-24T00:11:38;4.32;;;3.60;;
55603;SDS011;41468;48.838;9.330;2023-08-24T00:14:06;6.97;;;3.80;;
55603;SDS011;41468;48.838;9.330;2023-08-24T00:16:33;8.60;;;3.90;;
55603;SDS011;41468;48.838;9.330;2023-08-24T00:18:59;4.10;;;3.70;;
55603;SDS011;41468;48.838;9.330;2023-08-24T00:21:26;5.93;;;4.15;;
55603;SDS011;41468;48.838;9.330;2023-08-24T00:23:53;5.03;;;4.20;;
55603;SDS011;41468;48.838;9.330;2023-08-24T00:26:20;10.20;;;4.32;;
55603;SDS011;41468;48.838;9.330;2023-08-24T00:28:47;6.63;;;4.30;;
55603;SDS011;41468;48.838;9.330;2023-08-24T00:31:15;4.88;;;3.80;;
55603;SDS011;41468;48.838;9.330;2023-08-24T00:33:42;4.93;;;3.90;;
55603;SDS011;41468;48.838;9.330;2023-08-24T00:36:09;4.68;;;4.20;;
55603;SDS011;41468;48.838;9.330;2023-08-24T00:38:36;5.03;;;4.10;;
55603;SDS011;41468;48.838;9.330;2023-08-24T00:41:03;4.65;;;4.07;;
55603;SDS011;41468;48.838;9.330;2023-08-24T00:43:42;4.03;;;3.72;;
55603;SDS011;41468;48.838;9.330;2023-08-24T00:46:08;4.88;;;3.83;;
55603;SDS011;41468;48.838;9.330;2023-08-24T00:48:36;4.22;;;3.60;;
55603;SDS011;41468;48.838;9.330;2023-08-24T00:51:03;4.30;;;3.63;;
55603;SDS011;41468;48.838;9.330;2023-08-24T00:53:31;5.18;;;4.35;;
55603;SDS011;41468;48.838;9.330;2023-08-24T00:55:58;4.63;;;4.07;;
55603;SDS011;41468;48.838;9.330;2023-08-24T00:58:26;7.05;;;3.75;;
55603;SDS011;41468;48.838;9.330;2023-08-24T01:14:41;4.53;;;4.13;;
55603;SDS011;41468;48.838;9.330;2023-08-24T01:17:23;7.03;;;4.20;;
55603;SDS011;41468;48.838;9.330;2023-08-24T01:20:00;5.82;;;3.58;;
55603;SDS011;41468;48.838;9.330;2023-08-24T01:22:37;4.25;;;3.85;;
55603;SDS011;41468;48.838;9.330;2023-08-24T01:28:07;6.30;;;4.20;;
55603;SDS011;41468;48.838;9.330;2023-08-24T01:30:42;4.25;;;3.85;;
55603;SDS011;41468;48.838;9.330;2023-08-24T01:33:15;4.95;;;3.95;;
55603;SDS011;41468;48.838;9.330;2023-08-24T01:35:48;6.65;;;4.40;;
55603;SDS011;41468;48.838;9.330;2023-08-24T01:38:21;8.35;;;4.20;;
55603;SDS011;41468;48.838;9.330;2023-08-24T01:43:43;4.20;;;3.80;;
55603;SDS011;41468;48.838;9.330;2023-08-24T01:46:22;7.57;;;3.80;;
55603;SDS011;41468;48.838;9.330;2023-08-24T01:48:57;4.90;;;4.45;;
55603;SDS011;41468;48.838;9.330;2023-08-24T01:51:31;8.07;;;4.43;;
55603;SDS011;41468;48.838;9.330;2023-08-24T01:54:04;5.00;;;4.07;;
55603;SDS011;41468;48.838;9.330;2023-08-24T01:56:38;4.57;;;4.18;;
55603;SDS011;41468;48.838;9.330;2023-08-24T01:59:10;4.70;;;3.95;;
55603;SDS011;41468;48.838;9.330;2023-08-24T02:01:43;7.15;;;4.38;;
55603;SDS011;41468;48.838;9.330;2023-08-24T02:04:16;4.05;;;3.72;;
55603;SDS011;41468;48.838;9.330;2023-08-24T02:06:49;5.93;;;4.30;;
55603;SDS011;41468;48.838;9.330;2023-08-24T02:09:22;4.35;;;3.95;;
55603;SDS011;41468;48.838;9.330;2023-08-24T02:11:55;8.30;;;4.10;;
55603;SDS011;41468;48.838;9.330;2023-08-24T02:14:28;5.78;;;3.83;;
55603;SDS011;41468;48.838;9.330;2023-08-24T02:17:00;6.53;;;3.83;;
55603;SDS011;41468;48.838;9.330;2023-08-24T02:19:32;6.57;;;4.15;;
55603;SDS011;41468;48.838;9.330;2023-08-24T02:22:03;4.65;;;4.20;;
55603;SDS011;41468;48.838;9.330;2023-08-24T02:24:34;5.38;;;3.80;;
55603;SDS011;41468;48.838;9.330;2023-08-24T02:27:01;7.30;;;4.20;;
55603;SDS011;41468;48.838;9.330;2023-08-24T02:29:28;5.72;;;4.10;;
55603;SDS011;41468;48.838;9.330;2023-08-24T02:31:56;4.63;;;4.22;;
55603;SDS011;41468;48.838;9.330;2023-08-24T02:34:23;6.03;;;4.25;;
55603;SDS011;41468;48.838;9.330;2023-08-24T02:36:49;4.40;;;4.00;;
55603;SDS011;41468;48.838;9.330;2023-08-24T02:39:16;6.72;;;4.20;;
55603;SDS011;41468;48.838;9.330;2023-08-24T02:41:43;3.90;;;3.50;;
55603;SDS011;41468;48.838;9.330;2023-08-24T02:44:10;4.10;;;3.60;;
55603;SDS011;41468;48.838;9.330;2023-08-24T02:46:36;4.20;;;3.80;;
55603;SDS011;41468;48.838;9.330;2023-08-24T02:49:03;6.07;;;4.03;;
55603;SDS011;41468;48.838;9.330;2023-08-24T02:51:30;4.47;;;4.05;;
55603;SDS011;41468;48.838;9.330;2023-08-24T02:53:57;7.20;;;4.28;;
55603;SDS011;41468;48.838;9.330;2023-08-24T02:56:24;4.00;;;3.70;;
55603;SDS011;41468;48.838;9.330;2023-08-24T02:58:51;5.60;;;3.72;;
55603;SDS011;41468;48.838;9.330;2023-08-24T03:01:19;7.95;;;4.22;;
55603;SDS011;41468;48.838;9.330;2023-08-24T03:03:45;6.25;;;3.80;;
55603;SDS011;41468;48.838;9.330;2023-08-24T03:06:12;5.78;;;3.63;;
55603;SDS011;41468;48.838;9.330;2023-08-24T03:08:39;4.32;;;3.83;;
55603;SDS011;41468;48.838;9.330;2023-08-24T03:11:06;4.40;;;4.00;;
55603;SDS011;41468;48.838;9.330;2023-08-24T03:13:35;5.43;;;3.53;;
55603;SDS011;41468;48.838;9.330;2023-08-24T03:16:04;4.30;;;3.90;;
55603;SDS011;41468;48.838;9.330;2023-08-24T03:18:31;4.95;;;4.07;;
55603;SDS011;41468;48.838;9.330;2023-08-24T03:20:58;4.55;;;4.15;;
55603;SDS011;41468;48.838;9.330;2023-08-24T03:23:25;4.28;;;3.75;;
55603;SDS011;41468;48.838;9.330;2023-08-24T03:25:52;5.93;;;4.07;;
55603;SDS011;41468;48.838;9.330;2023-08-24T03:28:19;4.53;;;4.13;;
55603;SDS011;41468;48.838;9.330;2023-08-24T03:30:47;4.38;;;4.07;;
55603;SDS011;41468;48.838;9.330;2023-08-24T03:33:15;4.07;;;3.88;;
55603;SDS011;41468;48.838;9.330;2023-08-24T03:35:42;4.03;;;3.63;;
55603;SDS011;41468;48.838;9.330;2023-08-24T03:38:09;4.18;;;3.78;;
55603;SDS011;41468;48.838;9.330;2023-08-24T03:40:36;3.78;;;3.35;;
55603;SDS011;41468;48.838;9.330;2023-08-24T03:43:03;5.88;;;3.90;;
55603;SDS011;41468;48.838;9.330;2023-08-24T03:45:30;4.30;;;3.92;;
55603;SDS011;41468;48.838;9.330;2023-08-24T03:47:56;5.00;;;4.50;;
55603;SDS011;41468;48.838;9.330;2023-08-24T03:50:23;6.93;;;4.60;;
55603;SDS011;41468;48.838;9.330;2023-08-24T03:52:50;5.40;;;4.60;;
55603;SDS011;41468;48.838;9.330;2023-08-24T03:55:17;6.22;;;4.32;;
55603;SDS011;41468;48.838;9.330;2023-08-24T03:57:44;6.30;;;4.55;;
55603;SDS011;41468;48.838;9.330;2023-08-24T04:00:12;4.82;;;4.38;;
55603;SDS011;41468;48.838;9.330;2023-08-24T04:02:41;4.65;;;4.30;;
55603;SDS011;41468;48.838;9.330;2023-08-24T04:05:08;5.55;;;4.63;;
55603;SDS011;41468;48.838;9.330;2023-08-24T04:07:35;6.32;;;4.53;;
55603;SDS011;41468;48.838;9.330;2023-08-24T04:10:06;5.60;;;4.40;;
55603;SDS011;41468;48.838;9.330;2023-08-24T04:12:40;5.18;;;4.68;;
55603;SDS011;41468;48.838;9.330;2023-08-24T04:15:07;5.53;;;4.90;;
55603;SDS011;41468;48.838;9.330;2023-08-24T04:17:35;6.15;;;4.50;;
55603;SDS011;41468;48.838;9.330;2023-08-24T04:20:02;5.30;;;4.50;;
55603;SDS011;41468;48.838;9.330;2023-08-24T04:22:30;5.60;;;4.50;;
55603;SDS011;41468;48.838;9.330;2023-08-24T04:24:57;4.97;;;4.57;;
55603;SDS011;41468;48.838;9.330;2023-08-24T04:27:24;8.52;;;5.10;;
55603;SDS011;41468;48.838;9.330;2023-08-24T04:29:50;5.65;;;4.72;;
55603;SDS011;41468;48.838;9.330;2023-08-24T04:32:17;5.18;;;4.68;;
55603;SDS011;41468;48.838;9.330;2023-08-24T04:34:44;5.05;;;4.55;;
55603;SDS011;41468;48.838;9.330;2023-08-24T04:37:22;5.85;;;4.60;;
55603;SDS011;41468;48.838;9.330;2023-08-24T04:39:49;6.63;;;4.32;;
55603;SDS011;41468;48.838;9.330;2023-08-24T04:42:16;6.80;;;5.07;;
55603;SDS011;41468;48.838;9.330;2023-08-24T04:44:43;7.38;;;4.60;;
55603;SDS011;41468;48.838;9.330;2023-08-24T04:47:09;5.32;;;4.22;;
55603;SDS011;41468;48.838;9.330;2023-08-24T04:49:36;8.35;;;4.30;;
55603;SDS011;41468;48.838;9.330;2023-08-24T04:52:03;7.38;;;4.72;;
55603;SDS011;41468;48.838;9.330;2023-08-24T04:54:32;5.25;;;4.35;;
55603;SDS011;41468;48.838;9.330;2023-08-24T04:56:59;4.57;;;4.20;;
55603;SDS011;41468;48.838;9.330;2023-08-24T04:59:30;9.80;;;4.45;;
55603;SDS011;41468;48.838;9.330;2023-08-24T05:01:57;5.10;;;4.60;;
55603;SDS011;41468;48.838;9.330;2023-08-24T05:04:25;4.80;;;4.40;;
55603;SDS011;41468;48.838;9.330;2023-08-24T05:06:52;6.20;;;4.90;;
55603;SDS011;41468;48.838;9.330;2023-08-24T05:09:18;5.15;;;4.68;;
55603;SDS011;41468;48.838;9.330;2023-08-24T05:11:45;5.47;;;4.25;;
55603;SDS011;41468;48.838;9.330;2023-08-24T05:14:12;4.68;;;4.28;;
55603;SDS011;41468;48.838;9.330;2023-08-24T05:16:40;4.78;;;4.25;;
55603;SDS011;41468;48.838;9.330;2023-08-24T05:19:07;4.72;;;4.38;;
55603;SDS011;41468;48.838;9.330;2023-08-24T05:21:34;4.80;;;4.40;;
55603;SDS011;41468;48.838;9.330;2023-08-24T05:24:00;9.18;;;4.45;;
55603;SDS011;41468;48.838;9.330;2023-08-24T05:26:27;5.82;;;4.60;;
55603;SDS011;41468;48.838;9.330;2023-08-24T05:28:54;7.30;;;4.35;;
55603;SDS011;41468;48.838;9.330;2023-08-24T05:31:21;10.52;;;8.18;;
55603;SDS011;41468;48.838;9.330;2023-08-24T05:33:48;5.07;;;4.57;;
55603;SDS011;41468;48.838;9.330;2023-08-24T05:36:14;4.63;;;4.22;;
55603;SDS011;41468;48.838;9.330;2023-08-24T05:38:41;6.05;;;4.13;;
55603;SDS011;41468;48.838;9.330;2023-08-24T05:41:16;9.02;;;5.45;;
55603;SDS011;41468;48.838;9.330;2023-08-24T05:43:47;6.85;;;5.13;;
55603;SDS011;41468;48.838;9.330;2023-08-24T05:46:14;14.27;;;4.75;;
55603;SDS011;41468;48.838;9.330;2023-08-24T05:48:41;8.45;;;4.13;;
55603;SDS011;41468;48.838;9.330;2023-08-24T05:51:07;5.25;;;3.97;;
55603;SDS011;41468;48.838;9.330;2023-08-24T05:53:36;4.90;;;4.10;;
55603;SDS011;41468;48.838;9.330;2023-08-24T05:56:03;9.10;;;4.10;;
55603;SDS011;41468;48.838;9.330;2023-08-24T05:58:30;4.85;;;4.07;;
55603;SDS011;41468;48.838;9.330;2023-08-24T06:00:59;8.30;;;4.00;;
55603;SDS011;41468;48.838;9.330;2023-08-24T06:03:30;6.95;;;4.13;;
55603;SDS011;41468;48.838;9.330;2023-08-24T06:06:01;4.45;;;3.95;;
55603;SDS011;41468;48.838;9.330;2023-08-24T06:08:30;4.40;;;3.97;;
55603;SDS011;41468;48.838;9.330;2023-08-24T06:10:57;9.27;;;3.92;;
55603;SDS011;41468;48.838;9.330;2023-08-24T06:13:25;6.38;;;4.07;;
55603;SDS011;41468;48.838;9.330;2023-08-24T06:15:52;4.47;;;3.80;;
55603;SDS011;41468;48.838;9.330;2023-08-24T06:18:25;5.15;;;3.95;;
55603;SDS011;41468;48.838;9.330;2023-08-24T06:20:52;4.45;;;4.10;;
55603;SDS011;41468;48.838;9.330;2023-08-24T06:23:20;8.48;;;4.55;;
55603;SDS011;41468;48.838;9.330;2023-08-24T06:25:48;6.00;;;3.60;;
55603;SDS011;41468;48.838;9.330;2023-08-24T06:28:15;10.75;;;3.95;;
55603;SDS011;41468;48.838;9.330;2023-08-24T06:30:42;6.13;;;3.80;;
55603;SDS011;41468;48.838;9.330;2023-08-24T06:33:09;6.38;;;3.95;;
55603;SDS011;41468;48.838;9.330;2023-08-24T06:35:40;5.93;;;3.80;;
55603;SDS011;41468;48.838;9.330;2023-08-24T06:38:11;7.57;;;3.92;;
55603;SDS011;41468;48.838;9.330;2023-08-24T06:40:38;7.25;;;4.03;;
55603;SDS011;41468;48.838;9.330;2023-08-24T06:43:05;10.60;;;3.83;;
55603;SDS011;41468;48.838;9.330;2023-08-24T06:45:32;4.53;;;3.90;;
55603;SDS011;41468;48.838;9.330;2023-08-24T06:47:59;5.82;;;3.45;;
55603;SDS011;41468;48.838;9.330;2023-08-24T06:50:26;4.28;;;3.88;;
55603;SDS011;41468;48.838;9.330;2023-08-24T06:52:52;4.63;;;3.80;;
55603;SDS011;41468;48.838;9.330;2023-08-24T06:55:19;4.20;;;3.80;;
55603;SDS011;41468;48.838;9.330;2023-08-24T06:57:47;5.15;;;3.55;;
55603;SDS011;41468;48.838;9.330;2023-08-24T07:00:15;4.85;;;4.35;;
55603;SDS011;41468;48.838;9.330;2023-08-24T07:02:43;4.00;;;3.60;;
55603;SDS011;41468;48.838;9.330;2023-08-24T07:05:10;5.63;;;3.30;;
55603;SDS011;41468;48.838;9.330;2023-08-24T07:07:39;4.13;;;3.80;;
55603;SDS011;41468;48.838;9.330;2023-08-24T07:10:06;4.50;;;3.53;;
55603;SDS011;41468;48.838;9.330;2023-08-24T07:12:33;4.60;;;4.00;;
55603;SDS011;41468;48.838;9.330;2023-08-24T07:15:00;3.75;;;3.45;;
55603;SDS011;41468;48.838;9.330;2023-08-24T07:17:27;5.07;;;3.60;;
55603;SDS011;41468;48.838;9.330;2023-08-24T07:19:54;9.90;;;3.92;;
55603;SDS011;41468;48.838;9.330;2023-08-24T07:22:21;11.60;;;4.22;;
55603;SDS011;41468;48.838;9.330;2023-08-24T07:24:48;4.97;;;4.45;;
55603;SDS011;41468;48.838;9.330;2023-08-24T07:27:18;9.40;;;3.70;;
55603;SDS011;41468;48.838;9.330;2023-08-24T07:29:45;6.68;;;4.03;;
55603;SDS011;41468;48.838;9.330;2023-08-24T07:32:12;4.53;;;3.80;;
55603;SDS011;41468;48.838;9.330;2023-08-24T07:34:39;6.30;;;4.10;;
55603;SDS011;41468;48.838;9.330;2023-08-24T07:37:06;4.50;;;3.78;;
55603;SDS011;41468;48.838;9.330;2023-08-24T07:39:33;7.10;;;3.47;;
55603;SDS011;41468;48.838;9.330;2023-08-24T07:42:00;5.15;;;3.70;;
55603;SDS011;41468;48.838;9.330;2023-08-24T07:44:27;4.47;;;4.00;;
55603;SDS011;41468;48.838;9.330;2023-08-24T07:46:53;3.88;;;3.55;;
55603;SDS011;41468;48.838;9.330;2023-08-24T07:49:22;6.72;;;3.72;;
55603;SDS011;41468;48.838;9.330;2023-08-24T07:51:59;7.38;;;3.50;;
55603;SDS011;41468;48.838;9.330;2023-08-24T07:54:26;4.15;;;3.50;;
55603;SDS011;41468;48.838;9.330;2023-08-24T07:56:52;5.15;;;3.55;;
55603;SDS011;41468;48.838;9.330;2023-08-24T07:59:19;3.83;;;3.53;;
55603;SDS011;41468;48.838;9.330;2023-08-24T08:01:46;5.20;;;3.50;;
55603;SDS011;41468;48.838;9.330;2023-08-24T08:04:13;5.00;;;3.88;;
55603;SDS011;41468;48.838;9.330;2023-08-24T08:06:40;7.10;;;3.22;;
55603;SDS011;41468;48.838;9.330;2023-08-24T08:09:06;3.17;;;2.97;;
55603;SDS011;41468;48.838;9.330;2023-08-24T08:11:33;6.40;;;3.13;;
55603;SDS011;41468;48.838;9.330;2023-08-24T08:14:01;3.75;;;3.20;;
55603;SDS011;41468;48.838;9.330;2023-08-24T08:16:28;8.13;;;2.90;;
55603;SDS011;41468;48.838;9.330;2023-08-24T08:18:55;9.13;;;3.28;;
55603;SDS011;41468;48.838;9.330;2023-08-24T08:21:27;4.00;;;3.08;;
55603;SDS011;41468;48.838;9.330;2023-08-24T08:23:54;5.28;;;3.00;;
55603;SDS011;41468;48.838;9.330;2023-08-24T08:26:21;3.65;;;3.13;;
55603;SDS011;41468;48.838;9.330;2023-08-24T08:28:53;3.33;;;3.03;;
55603;SDS011;41468;48.838;9.330;2023-08-24T08:31:20;3.80;;;2.88;;
55603;SDS011;41468;48.838;9.330;2023-08-24T08:33:58;6.05;;;3.28;;
55603;SDS011;41468;48.838;9.330;2023-08-24T08:36:25;8.75;;;3.33;;
55603;SDS011;41468;48.838;9.330;2023-08-24T08:38:52;5.90;;;3.72;;
55603;SDS011;41468;48.838;9.330;2023-08-24T08:41:21;4.47;;;3.13;;
55603;SDS011;41468;48.838;9.330;2023-08-24T08:43:49;4.43;;;3.08;;
55603;SDS011;41468;48.838;9.330;2023-08-24T08:46:16;3.40;;;2.80;;
55603;SDS011;41468;48.838;9.330;2023-08-24T08:48:53;5.20;;;3.10;;
55603;SDS011;41468;48.838;9.330;2023-08-24T08:51:20;6.32;;;3.38;;
55603;SDS011;41468;48.838;9.330;2023-08-24T08:53:48;6.13;;;3.15;;
55603;SDS011;41468;48.838;9.330;2023-08-24T08:56:14;4.72;;;3.10;;
55603;SDS011;41468;48.838;9.330;2023-08-24T08:58:42;5.95;;;3.17;;
55603;SDS011;41468;48.838;9.330;2023-08-24T09:01:10;3.42;;;3.10;;
55603;SDS011;41468;48.838;9.330;2023-08-24T09:03:37;4.85;;;3.13;;
55603;SDS011;41468;48.838;9.330;2023-08-24T09:06:06;4.03;;;3.17;;
55603;SDS011;41468;48.838;9.330;2023-08-24T09:08:33;4.38;;;2.75;;
55603;SDS011;41468;48.838;9.330;2023-08-24T09:11:00;3.47;;;3.08;;
55603;SDS011;41468;48.838;9.330;2023-08-24T09:13:27;6.60;;;3.22;;
55603;SDS011;41468;48.838;9.330;2023-08-24T09:15:55;3.83;;;3.03;;
55603;SDS011;41468;48.838;9.330;2023-08-24T09:18:39;3.97;;;2.70;;
55603;SDS011;41468;48.838;9.330;2023-08-24T09:21:09;5.75;;;3.00;;
55603;SDS011;41468;48.838;9.330;2023-08-24T09:23:37;6.03;;;3.25;;
55603;SDS011;41468;48.838;9.330;2023-08-24T09:26:09;6.97;;;3.45;;
55603;SDS011;41468;48.838;9.330;2023-08-24T09:28:37;9.18;;;3.22;;
55603;SDS011;41468;48.838;9.330;2023-08-24T09:31:06;9.55;;;3.10;;
55603;SDS011;41468;48.838;9.330;2023-08-24T09:33:32;3.75;;;3.00;;
55603;SDS011;41468;48.838;9.330;2023-08-24T09:36:00;4.18;;;3.22;;
55603;SDS011;41468;48.838;9.330;2023-08-24T09:38:35;3.70;;;3.17;;
55603;SDS011;41468;48.838;9.330;2023-08-24T09:41:02;4.15;;;3.40;;
55603;SDS011;41468;48.838;9.330;2023-08-24T09:43:29;6.22;;;3.50;;
55603;SDS011;41468;48.838;9.330;2023-08-24T09:45:57;4.65;;;3.20;;
55603;SDS011;41468;48.838;9.330;2023-08-24T09:48:24;5.75;;;3.08;;
55603;SDS011;41468;48.838;9.330;2023-08-24T09:50:55;6.57;;;3.53;;
55603;SDS011;41468;48.838;9.330;2023-08-24T09:53:23;5.38;;;3.30;;
55603;SDS011;41468;48.838;9.330;2023-08-24T09:56:00;3.33;;;2.80;;
55603;SDS011;41468;48.838;9.330;2023-08-24T09:58:27;5.18;;;3.08;;
55603;SDS011;41468;48.838;9.330;2023-08-24T10:00:55;3.45;;;3.17;;
55603;SDS011;41468;48.838;9.330;2023-08-24T10:03:25;3.55;;;3.25;;
55603;SDS011;41468;48.838;9.330;2023-08-24T10:05:54;6.18;;;3.40;;
55603;SDS011;41468;48.838;9.330;2023-08-24T10:08:36;4.13;;;3.40;;
55603;SDS011;41468;48.838;9.330;2023-08-24T10:11:04;8.38;;;3.58;;
55603;SDS011;41468;48.838;9.330;2023-08-24T10:16:39;5.72;;;3.50;;
55603;SDS011;41468;48.838;9.330;2023-08-24T10:19:09;3.88;;;3.58;;
55603;SDS011;41468;48.838;9.330;2023-08-24T10:21:37;4.50;;;3.45;;
55603;SDS011;41468;48.838;9.330;2023-08-24T10:24:04;3.92;;;3.58;;
55603;SDS011;41468;48.838;9.330;2023-08-24T10:26:32;6.22;;;3.50;;
55603;SDS011;41468;48.838;9.330;2023-08-24T10:29:01;5.57;;;3.67;;
55603;SDS011;41468;48.838;9.330;2023-08-24T10:31:29;4.53;;;3.97;;
55603;SDS011;41468;48.838;9.330;2023-08-24T10:33:57;5.30;;;3.55;;
55603;SDS011;41468;48.838;9.330;2023-08-24T10:36:25;4.00;;;3.60;;
55603;SDS011;41468;48.838;9.330;2023-08-24T10:38:55;7.88;;;3.90;;
55603;SDS011;41468;48.838;9.330;2023-08-24T10:41:27;5.55;;;3.80;;
55603;SDS011;41468;48.838;9.330;2023-08-24T10:44:03;4.75;;;3.72;;
55603;SDS011;41468;48.838;9.330;2023-08-24T10:46:34;3.97;;;3.45;;
55603;SDS011;41468;48.838;9.330;2023-08-24T10:49:03;4.95;;;3.60;;
55603;SDS011;41468;48.838;9.330;2023-08-24T10:51:31;3.90;;;3.60;;
55603;SDS011;41468;48.838;9.330;2023-08-24T10:53:59;4.53;;;3.42;;
55603;SDS011;41468;48.838;9.330;2023-08-24T10:56:30;3.97;;;3.30;;
55603;SDS011;41468;48.838;9.330;2023-08-24T10:59:13;6.15;;;3.60;;
55603;SDS011;41468;48.838;9.330;2023-08-24T11:01:42;5.70;;;3.67;;
55603;SDS011;41468;48.838;9.330;2023-08-24T11:04:20;3.92;;;3.47;;
55603;SDS011;41468;48.838;9.330;2023-08-24T11:06:50;3.80;;;3.50;;
55603;SDS011;41468;48.838;9.330;2023-08-24T11:09:25;4.20;;;3.35;;
55603;SDS011;41468;48.838;9.330;2023-08-24T11:11:57;6.95;;;4.10;;
55603;SDS011;41468;48.838;9.330;2023-08-24T11:14:30;4.60;;;3.40;;
55603;SDS011;41468;48.838;9.330;2023-08-24T11:17:00;5.25;;;4.30;;
55603;SDS011;41468;48.838;9.330;2023-08-24T11:19:29;8.10;;;4.00;;
55603;SDS011;41468;48.838;9.330;2023-08-24T11:21:57;7.75;;;3.83;;
55603;SDS011;41468;48.838;9.330;2023-08-24T11:24:24;4.70;;;4.10;;
55603;SDS011;41468;48.838;9.330;2023-08-24T11:26:51;4.40;;;3.85;;
55603;SDS011;41468;48.838;9.330;2023-08-24T11:29:18;4.13;;;3.50;;
55603;SDS011;41468;48.838;9.330;2023-08-24T11:31:45;6.28;;;3.63;;
55603;SDS011;41468;48.838;9.330;2023-08-24T11:34:16;5.07;;;3.40;;
55603;SDS011;41468;48.838;9.330;2023-08-24T11:36:46;6.82;;;3.80;;
55603;SDS011;41468;48.838;9.330;2023-08-24T11:39:15;6.15;;;3.75;;
55603;SDS011;41468;48.838;9.330;2023-08-24T11:44:28;5.85;;;3.55;;
55603;SDS011;41468;48.838;9.330;2023-08-24T11:46:56;4.03;;;3.65;;
55603;SDS011;41468;48.838;9.330;2023-08-24T11:49:25;25.23;;;3.95;;
55603;SDS011;41468;48.838;9.330;2023-08-24T11:51:52;6.85;;;3.50;;
55603;SDS011;41468;48.838;9.330;2023-08-24T11:54:19;4.43;;;3.53;;
55603;SDS011;41468;48.838;9.330;2023-08-24T11:56:50;4.72;;;4.07;;
55603;SDS011;41468;48.838;9.330;2023-08-24T11:59:21;7.28;;;3.92;;
55603;SDS011;41468;48.838;9.330;2023-08-24T12:01:49;7.85;;;4.30;;
55603;SDS011;41468;48.838;9.330;2023-08-24T12:04:17;4.93;;;3.80;;
55603;SDS011;41468;48.838;9.330;2023-08-24T12:06:43;7.88;;;3.50;;
55603;SDS011;41468;48.838;9.330;2023-08-24T12:09:10;7.18;;;4.35;;
55603;SDS011;41468;48.838;9.330;2023-08-24T12:11:37;4.28;;;3.70;;
55603;SDS011;41468;48.838;9.330;2023-08-24T12:14:05;5.57;;;3.60;;
55603;SDS011;41468;48.838;9.330;2023-08-24T12:16:40;8.15;;;3.80;;
55603;SDS011;41468;48.838;9.330;2023-08-24T12:19:08;4.07;;;3.70;;
55603;SDS011;41468;48.838;9.330;2023-08-24T12:21:35;7.30;;;3.70;;
55603;SDS011;41468;48.838;9.330;2023-08-24T12:24:03;4.28;;;3.88;;
55603;SDS011;41468;48.838;9.330;2023-08-24T12:26:33;8.90;;;3.72;;
55603;SDS011;41468;48.838;9.330;2023-08-24T12:29:07;3.85;;;3.45;;
55603;SDS011;41468;48.838;9.330;2023-08-24T12:31:35;3.70;;;3.40;;
55603;SDS011;41468;48.838;9.330;2023-08-24T12:34:06;5.47;;;3.42;;
55603;SDS011;41468;48.838;9.330;2023-08-24T12:36:38;7.60;;;3.55;;
55603;SDS011;41468;48.838;9.330;2023-08-24T12:39:05;6.35;;;3.53;;
55603;SDS011;41468;48.838;9.330;2023-08-24T12:41:34;4.18;;;3.85;;
55603;SDS011;41468;48.838;9.330;2023-08-24T12:44:12;4.15;;;3.45;;
55603;SDS011;41468;48.838;9.330;2023-08-24T12:46:41;4.70;;;3.80;;
55603;SDS011;41468;48.838;9.330;2023-08-24T12:49:08;3.85;;;3.58;;
55603;SDS011;41468;48.838;9.330;2023-08-24T12:51:34;5.00;;;3.90;;
55603;SDS011;41468;48.838;9.330;2023-08-24T12:54:01;6.43;;;4.07;;
55603;SDS011;41468;48.838;9.330;2023-08-24T12:56:28;4.93;;;3.85;;
55603;SDS011;41468;48.838;9.330;2023-08-24T12:58:55;10.52;;;3.88;;
55603;SDS011;41468;48.838;9.330;2023-08-24T13:01:21;6.38;;;3.83;;
55603;SDS011;41468;48.838;9.330;2023-08-24T13:03:48;8.15;;;3.67;;
55603;SDS011;41468;48.838;9.330;2023-08-24T13:06:15;4.15;;;3.47;;
55603;SDS011;41468;48.838;9.330;2023-08-24T13:08:45;7.22;;;4.25;;
55603;SDS011;41468;48.838;9.330;2023-08-24T13:11:11;5.10;;;3.72;;
55603;SDS011;41468;48.838;9.330;2023-08-24T13:13:38;6.18;;;3.80;;
55603;SDS011;41468;48.838;9.330;2023-08-24T13:16:05;6.32;;;4.07;;
55603;SDS011;41468;48.838;9.330;2023-08-24T13:18:32;5.57;;;3.75;;
55603;SDS011;41468;48.838;9.330;2023-08-24T13:20:58;8.30;;;4.38;;
55603;SDS011;41468;48.838;9.330;2023-08-24T13:23:25;8.05;;;3.90;;
55603;SDS011;41468;48.838;9.330;2023-08-24T13:25:52;3.92;;;3.53;;
55603;SDS011;41468;48.838;9.330;2023-08-24T13:28:19;3.97;;;3.65;;
55603;SDS011;41468;48.838;9.330;2023-08-24T13:30:46;5.10;;;3.63;;
55603;SDS011;41468;48.838;9.330;2023-08-24T13:33:15;5.97;;;3.72;;
55603;SDS011;41468;48.838;9.330;2023-08-24T13:35:41;11.25;;;3.83;;
55603;SDS011;41468;48.838;9.330;2023-08-24T13:38:08;8.52;;;3.50;;
55603;SDS011;41468;48.838;9.330;2023-08-24T13:40:35;7.88;;;4.25;;
55603;SDS011;41468;48.838;9.330;2023-08-24T13:43:02;4.55;;;3.50;;
55603;SDS011;41468;48.838;9.330;2023-08-24T13:45:28;6.57;;;4.00;;
55603;SDS011;41468;48.838;9.330;2023-08-24T13:47:57;8.90;;;3.67;;
55603;SDS011;41468;48.838;9.330;2023-08-24T13:50:24;4.97;;;3.65;;
55603;SDS011;41468;48.838;9.330;2023-08-24T13:52:51;6.18;;;3.47;;
55603;SDS011;41468;48.838;9.330;2023-08-24T13:55:18;4.60;;;3.88;;
55603;SDS011;41468;48.838;9.330;2023-08-24T13:57:45;7.50;;;3.78;;
55603;SDS011;41468;48.838;9.330;2023-08-24T14:00:12;5.22;;;3.80;;
55603;SDS011;41468;48.838;9.330;2023-08-24T14:02:39;8.25;;;3.80;;
55603;SDS011;41468;48.838;9.330;2023-08-24T14:05:06;7.13;;;3.78;;
55603;SDS011;41468;48.838;9.330;2023-08-24T14:07:36;6.68;;;3.88;;
55603;SDS011;41468;48.838;9.330;2023-08-24T14:10:03;5.57;;;3.80;;
55603;SDS011;41468;48.838;9.330;2023-08-24T14:12:32;8.60;;;4.00;;
55603;SDS011;41468;48.838;9.330;2023-08-24T14:14:59;8.35;;;3.75;;
55603;SDS011;41468;48.838;9.330;2023-08-24T14:17:27;6.35;;;3.83;;
55603;SDS011;41468;48.838;9.330;2023-08-24T14:19:53;7.90;;;3.90;;
55603;SDS011;41468;48.838;9.330;2023-08-24T14:22:21;7.25;;;4.05;;
55603;SDS011;41468;48.838;9.330;2023-08-24T14:24:47;8.60;;;3.60;;
55603;SDS011;41468;48.838;9.330;2023-08-24T14:27:14;9.85;;;3.95;;
55603;SDS011;41468;48.838;9.330;2023-08-24T14:29:41;5.85;;;3.75;;
55603;SDS011;41468;48.838;9.330;2023-08-24T14:32:08;9.98;;;3.88;;
55603;SDS011;41468;48.838;9.330;2023-08-24T14:34:35;8.13;;;3.72;;
55603;SDS011;41468;48.838;9.330;2023-08-24T14:37:01;13.07;;;3.97;;
55603;SDS011;41468;48.838;9.330;2023-08-24T14:39:40;8.95;;;3.80;;
55603;SDS011;41468;48.838;9.330;2023-08-24T14:42:07;6.75;;;3.58;;
55603;SDS011;41468;48.838;9.330;2023-08-24T14:44:34;6.72;;;3.30;;
55603;SDS011;41468;48.838;9.330;2023-08-24T14:47:01;3.83;;;3.50;;
55603;SDS011;41468;48.838;9.330;2023-08-24T14:49:28;8.32;;;3.78;;
55603;SDS011;41468;48.838;9.330;2023-08-24T14:51:55;5.82;;;4.05;;
55603;SDS011;41468;48.838;9.330;2023-08-24T14:54:22;11.45;;;3.83;;
55603;SDS011;41468;48.838;9.330;2023-08-24T14:56:49;7.43;;;3.45;;
55603;SDS011;41468;48.838;9.330;2023-08-24T14:59:15;10.45;;;4.07;;
55603;SDS011;41468;48.838;9.330;2023-08-24T15:01:43;8.80;;;3.80;;
55603;SDS011;41468;48.838;9.330;2023-08-24T15:04:11;12.52;;;4.30;;
55603;SDS011;41468;48.838;9.330;2023-08-24T15:06:38;15.85;;;4.30;;
55603;SDS011;41468;48.838;9.330;2023-08-24T15:09:05;21.88;;;4.55;;
55603;SDS011;41468;48.838;9.330;2023-08-24T15:11:31;41.35;;;4.85;;
55603;SDS011;41468;48.838;9.330;2023-08-24T15:13:58;16.35;;;4.40;;
55603;SDS011;41468;48.838;9.330;2023-08-24T15:16:25;15.23;;;6.43;;
55603;SDS011;41468;48.838;9.330;2023-08-24T15:18:52;9.40;;;4.80;;
55603;SDS011;41468;48.838;9.330;2023-08-24T15:21:20;6.82;;;3.67;;